Time,TemperatureF,DewpointF,PressureIn,WindDirection,WindDirectionDegrees,WindSpeedMPH,WindSpeedGustMPH,Humidity,HourlyPrecipIn,Conditions,Clouds,dailyrainin,SolarRadiationWatts/m^2,SoftwareType,DateUTC
2013-03-29 00:15:00,43.1,32.0,30.20,NW,305,3.0,3.0,65,0.00,,,0.00,0,weatherlink.com 1.10,2013-03-29 04:15:00,
2013-03-29 00:30:00,43.2,32.0,30.20,NW,304,2.0,4.0,65,0.00,,,0.00,0,weatherlink.com 1.10,2013-03-29 04:30:00,
2013-03-29 00:45:00,43.2,32.0,30.20,WNW,298,3.0,4.0,65,0.00,,,0.00,0,weatherlink.com 1.10,2013-03-29 04:45:00,
2013-03-29 01:00:00,43.2,32.0,30.20,WNW,297,2.0,5.0,65,0.00,,,0.00,0,weatherlink.com 1.10,2013-03-29 05:00:00,
2013-03-29 01:15:00,43.2,32.0,30.20,WNW,283,1.0,5.0,65,0.00,,,0.00,0,weatherlink.com 1.10,2013-03-29 05:15:00,
2013-03-29 01:30:00,43.3,32.0,30.20,WNW,296,1.0,5.0,65,0.00,,,0.00,0,weatherlink.com 1.10,2013-03-29 05:30:00,
2013-03-29 01:45:00,43.2,32.0,30.21,WNW,290,1.0,4.0,65,0.00,,,0.00,0,weatherlink.com 1.10,2013-03-29 05:45:00,
2013-03-29 02:00:00,43.1,32.0,30.21,WNW,290,0.0,5.0,65,0.00,,,0.00,0,weatherlink.com 1.10,2013-03-29 06:00:00,
2013-03-29 02:15:00,43.0,32.0,30.21,WNW,286,0.0,5.0,65,0.00,,,0.00,0,weatherlink.com 1.10,2013-03-29 06:15:00,
2013-03-29 02:30:00,43.0,31.0,30.20,West,277,2.0,5.0,64,0.00,,,0.00,0,weatherlink.com 1.10,2013-03-29 06:30:00,
2013-03-29 02:45:00,42.8,31.0,30.21,WNW,286,2.0,5.0,64,0.00,,,0.00,0,weatherlink.com 1.10,2013-03-29 06:45:00,
2013-03-29 03:00:00,42.4,31.0,30.21,NW,306,1.0,4.0,65,0.00,,,0.00,0,weatherlink.com 1.10,2013-03-29 07:00:00,
2013-03-29 03:15:00,41.9,31.0,30.21,NW,306,0.0,4.0,65,0.00,,,0.00,0,weatherlink.com 1.10,2013-03-29 07:15:00,
2013-03-29 03:30:00,41.5,31.0,30.20,NW,304,1.0,6.0,66,0.00,,,0.00,0,weatherlink.com 1.10,2013-03-29 07:30:00,
2013-03-29 03:45:00,41.3,31.0,30.20,WNW,295,2.0,4.0,66,0.00,,,0.00,0,weatherlink.com 1.10,2013-03-29 07:45:00,
2013-03-29 04:00:00,41.1,30.0,30.20,NW,304,2.0,5.0,66,0.00,,,0.00,0,weatherlink.com 1.10,2013-03-29 08:00:00,
2013-03-29 04:15:00,41.0,31.0,30.21,NW,304,2.0,3.0,67,0.00,,,0.00,0,weatherlink.com 1.10,2013-03-29 08:15:00,
2013-03-29 04:30:00,41.0,31.0,30.21,WNW,292,1.0,4.0,67,0.00,,,0.00,0,weatherlink.com 1.10,2013-03-29 08:30:00,
2013-03-29 04:45:00,40.7,31.0,30.21,WNW,289,1.0,4.0,68,0.00,,,0.00,0,weatherlink.com 1.10,2013-03-29 08:45:00,
2013-03-29 05:00:00,40.8,31.0,30.21,WNW,293,5.0,6.0,67,0.00,,,0.00,0,weatherlink.com 1.10,2013-03-29 09:00:00,
2013-03-29 05:15:00,40.8,31.0,30.21,WNW,289,1.0,4.0,67,0.00,,,0.00,0,weatherlink.com 1.10,2013-03-29 09:15:00,
2013-03-29 05:30:00,40.6,30.0,30.21,WNW,287,3.0,4.0,67,0.00,,,0.00,0,weatherlink.com 1.10,2013-03-29 09:30:00,
2013-03-29 05:45:00,40.3,30.0,30.21,West,281,4.0,4.0,67,0.00,,,0.00,0,weatherlink.com 1.10,2013-03-29 09:45:00,
2013-03-29 06:00:00,40.1,30.0,30.21,WNW,286,1.0,4.0,67,0.00,,,0.00,0,weatherlink.com 1.10,2013-03-29 10:00:00,
2013-03-29 06:15:00,39.8,30.0,30.21,West,279,1.0,4.0,67,0.00,,,0.00,0,weatherlink.com 1.10,2013-03-29 10:15:00,
2013-03-29 06:30:00,39.7,29.0,30.21,WNW,301,5.0,5.0,67,0.00,,,0.00,0,weatherlink.com 1.10,2013-03-29 10:30:00,
2013-03-29 06:45:00,39.5,30.0,30.21,WNW,287,2.0,6.0,68,0.00,,,0.00,0,weatherlink.com 1.10,2013-03-29 10:45:00,
2013-03-29 07:00:00,39.4,30.0,30.22,NW,304,1.0,4.0,68,0.00,,,0.00,11,weatherlink.com 1.10,2013-03-29 11:00:00,
2013-03-29 07:15:00,39.6,30.0,30.22,WNW,292,2.0,6.0,68,0.00,,,0.00,19,weatherlink.com 1.10,2013-03-29 11:15:00,
2013-03-29 07:30:00,40.2,30.0,30.22,WNW,284,2.0,4.0,67,0.00,,,0.00,63,weatherlink.com 1.10,2013-03-29 11:30:00,
2013-03-29 07:45:00,40.9,30.0,30.23,NW,319,2.0,6.0,66,0.00,,,0.00,86,weatherlink.com 1.10,2013-03-29 11:45:00,
2013-03-29 08:00:00,41.5,30.0,30.23,WNW,296,3.0,9.0,65,0.00,,,0.00,100,weatherlink.com 1.10,2013-03-29 12:00:00,
2013-03-29 08:15:00,41.9,30.0,30.23,West,273,1.0,9.0,64,0.00,,,0.00,90,weatherlink.com 1.10,2013-03-29 12:15:00,
2013-03-29 08:30:00,42.5,31.0,30.23,West,271,4.0,7.0,63,0.00,,,0.00,223,weatherlink.com 1.10,2013-03-29 12:30:00,
2013-03-29 08:45:00,42.9,31.0,30.23,NNW,332,1.0,8.0,63,0.00,,,0.00,243,weatherlink.com 1.10,2013-03-29 12:45:00,
2013-03-29 09:00:00,43.6,31.0,30.23,WNW,283,1.0,9.0,62,0.00,,,0.00,216,weatherlink.com 1.10,2013-03-29 13:00:00,
2013-03-29 09:15:00,44.0,32.0,30.23,NNW,328,1.0,7.0,62,0.00,,,0.00,281,weatherlink.com 1.10,2013-03-29 13:15:00,
2013-03-29 09:30:00,44.9,32.0,30.23,WNW,292,1.0,5.0,60,0.00,,,0.00,178,weatherlink.com 1.10,2013-03-29 13:30:00,
2013-03-29 09:45:00,45.4,32.0,30.23,North,11,3.0,9.0,59,0.00,,,0.00,255,weatherlink.com 1.10,2013-03-29 13:45:00,
2013-03-29 10:01:00,46.1,31.0,30.23,NNW,346,4.0,8.0,57,0.00,,,0.00,410,weatherlink.com 1.10,2013-03-29 14:01:00,
2013-03-29 10:16:00,47.0,31.0,30.23,NW,320,2.0,9.0,55,0.00,,,0.00,603,weatherlink.com 1.10,2013-03-29 14:16:00,
2013-03-29 10:31:00,48.3,31.0,30.23,NW,317,3.0,7.0,52,0.00,,,0.00,638,weatherlink.com 1.10,2013-03-29 14:31:00,
2013-03-29 11:31:00,51.6,31.0,30.22,WNW,289,2.0,7.0,46,0.00,,,0.00,756,weatherlink.com 1.10,2013-03-29 15:31:00,
2013-03-29 11:46:00,51.7,31.0,30.22,WNW,297,2.0,7.0,45,0.00,,,0.00,779,weatherlink.com 1.10,2013-03-29 15:46:00,
2013-03-29 12:01:00,51.8,30.0,30.21,North,360,4.0,10.0,44,0.00,,,0.00,791,weatherlink.com 1.10,2013-03-29 16:01:00,
2013-03-29 12:16:00,52.8,29.0,30.21,WNW,302,7.0,12.0,41,0.00,,,0.00,807,weatherlink.com 1.10,2013-03-29 16:16:00,
2013-03-29 12:46:00,54.4,31.0,30.19,North,9,3.0,7.0,41,0.00,,,0.00,886,weatherlink.com 1.10,2013-03-29 16:46:00,
2013-03-29 13:01:00,53.1,29.0,30.19,WNW,303,5.0,12.0,40,0.00,,,0.00,353,weatherlink.com 1.10,2013-03-29 17:01:00,
2013-03-29 13:16:00,52.8,28.0,30.18,WNW,286,3.0,7.0,39,0.00,,,0.00,401,weatherlink.com 1.10,2013-03-29 17:16:00,
2013-03-29 13:47:00,54.1,29.0,30.17,WNW,296,6.0,9.0,38,0.00,,,0.00,366,weatherlink.com 1.10,2013-03-29 17:47:00,
2013-03-29 14:01:00,54.2,27.0,30.17,West,263,3.0,13.0,35,0.00,,,0.00,399,weatherlink.com 1.10,2013-03-29 18:01:00,
2013-03-29 14:16:00,54.9,28.0,30.16,NNW,337,8.0,11.0,36,0.00,,,0.00,457,weatherlink.com 1.10,2013-03-29 18:16:00,
2013-03-29 14:31:00,54.6,27.0,30.15,NW,309,3.0,13.0,35,0.00,,,0.00,401,weatherlink.com 1.10,2013-03-29 18:31:00,
2013-03-29 14:47:00,56.2,28.0,30.15,West,265,2.0,8.0,34,0.00,,,0.00,301,weatherlink.com 1.10,2013-03-29 18:47:00,
2013-03-29 15:02:00,55.1,27.0,30.15,North,11,3.0,12.0,34,0.00,,,0.00,329,weatherlink.com 1.10,2013-03-29 19:02:00,
2013-03-29 15:17:00,53.5,28.0,30.15,WNW,291,7.0,14.0,37,0.00,,,0.00,220,weatherlink.com 1.10,2013-03-29 19:17:00,
2013-03-29 15:32:00,53.7,28.0,30.14,NW,314,5.0,9.0,37,0.00,,,0.00,251,weatherlink.com 1.10,2013-03-29 19:32:00,
2013-03-29 15:47:00,53.3,29.0,30.14,NNW,340,2.0,11.0,39,0.00,,,0.00,202,weatherlink.com 1.10,2013-03-29 19:47:00,
2013-03-29 16:02:00,53.3,29.0,30.14,North,5,3.0,9.0,39,0.00,,,0.00,206,weatherlink.com 1.10,2013-03-29 20:02:00,
2013-03-29 16:17:00,52.7,29.0,30.14,NW,323,3.0,9.0,40,0.00,,,0.00,230,weatherlink.com 1.10,2013-03-29 20:17:00,
2013-03-29 16:32:00,52.6,28.0,30.14,NW,317,4.0,7.0,39,0.00,,,0.00,174,weatherlink.com 1.10,2013-03-29 20:32:00,
2013-03-29 16:47:00,52.7,29.0,30.14,NNE,28,6.0,7.0,40,0.00,,,0.00,176,weatherlink.com 1.10,2013-03-29 20:47:00,
2013-03-29 17:02:00,52.0,28.0,30.14,NW,305,4.0,10.0,39,0.00,,,0.00,97,weatherlink.com 1.10,2013-03-29 21:02:00,
2013-03-29 17:17:00,51.8,28.0,30.14,NW,318,3.0,11.0,40,0.00,,,0.00,114,weatherlink.com 1.10,2013-03-29 21:17:00,
2013-03-29 17:32:00,51.1,29.0,30.15,NW,306,4.0,12.0,42,0.00,,,0.00,107,weatherlink.com 1.10,2013-03-29 21:32:00,
2013-03-29 17:47:00,50.5,29.0,30.16,West,264,5.0,13.0,43,0.00,,,0.00,86,weatherlink.com 1.10,2013-03-29 21:47:00,
2013-03-29 18:02:00,50.1,29.0,30.16,NNW,334,4.0,13.0,45,0.00,,,0.00,90,weatherlink.com 1.10,2013-03-29 22:02:00,
2013-03-29 18:17:00,50.4,30.0,30.16,NNW,344,3.0,11.0,45,0.00,,,0.00,67,weatherlink.com 1.10,2013-03-29 22:17:00,
2013-03-29 18:32:00,49.3,29.0,30.16,WNW,286,2.0,9.0,46,0.00,,,0.00,23,weatherlink.com 1.10,2013-03-29 22:32:00,
2013-03-29 18:47:00,48.3,29.0,30.17,NNE,29,4.0,12.0,48,0.00,,,0.00,16,weatherlink.com 1.10,2013-03-29 22:47:00,
2013-03-29 19:17:00,47.5,30.0,30.17,West,271,6.0,10.0,50,0.00,,,0.00,0,weatherlink.com 1.10,2013-03-29 23:17:00,
2013-03-29 19:32:00,47.2,29.0,30.18,NNW,334,1.0,13.0,50,0.00,,,0.00,0,weatherlink.com 1.10,2013-03-29 23:32:00,
2013-03-29 19:47:00,46.9,29.0,30.18,NNW,328,1.0,10.0,50,0.00,,,0.00,0,weatherlink.com 1.10,2013-03-29 23:47:00,
2013-03-29 20:02:00,46.3,28.0,30.18,NNW,331,2.0,10.0,50,0.00,,,0.00,0,weatherlink.com 1.10,2013-03-30 00:02:00,
2013-03-29 20:17:00,46.0,29.0,30.18,West,269,4.0,9.0,52,0.00,,,0.00,0,weatherlink.com 1.10,2013-03-30 00:17:00,
2013-03-29 20:32:00,45.8,29.0,30.19,NW,316,5.0,11.0,52,0.00,,,0.00,0,weatherlink.com 1.10,2013-03-30 00:32:00,
2013-03-29 20:47:00,45.5,30.0,30.20,West,267,3.0,9.0,54,0.00,,,0.00,0,weatherlink.com 1.10,2013-03-30 00:47:00,
2013-03-29 21:02:00,45.2,29.0,30.20,NNW,334,2.0,7.0,54,0.00,,,0.00,0,weatherlink.com 1.10,2013-03-30 01:02:00,
2013-03-29 21:17:00,45.0,30.0,30.20,WNW,296,1.0,9.0,55,0.00,,,0.00,0,weatherlink.com 1.10,2013-03-30 01:17:00,
2013-03-29 21:32:00,44.8,30.0,30.21,North,9,4.0,7.0,56,0.00,,,0.00,0,weatherlink.com 1.10,2013-03-30 01:32:00,
2013-03-29 21:47:00,44.6,30.0,30.21,NW,315,4.0,6.0,56,0.00,,,0.00,0,weatherlink.com 1.10,2013-03-30 01:47:00,
2013-03-29 22:02:00,44.4,29.0,30.21,WSW,242,3.0,7.0,56,0.00,,,0.00,0,weatherlink.com 1.10,2013-03-30 02:02:00,
2013-03-29 22:17:00,44.3,30.0,30.21,NW,309,3.0,10.0,57,0.00,,,0.00,0,weatherlink.com 1.10,2013-03-30 02:17:00,
2013-03-29 22:32:00,44.2,30.0,30.21,WNW,292,2.0,7.0,58,0.00,,,0.00,0,weatherlink.com 1.10,2013-03-30 02:32:00,
2013-03-29 22:47:00,44.2,30.0,30.22,NNW,332,2.0,8.0,58,0.00,,,0.00,0,weatherlink.com 1.10,2013-03-30 02:47:00,
2013-03-29 23:02:00,44.4,30.0,30.22,WNW,290,5.0,10.0,57,0.00,,,0.00,0,weatherlink.com 1.10,2013-03-30 03:02:00,
2013-03-29 23:17:00,44.3,30.0,30.22,West,259,1.0,9.0,57,0.00,,,0.00,0,weatherlink.com 1.10,2013-03-30 03:17:00,
2013-03-29 23:32:00,44.1,30.0,30.22,WNW,296,4.0,6.0,57,0.00,,,0.00,0,weatherlink.com 1.10,2013-03-30 03:32:00,
2013-03-29 23:47:00,44.2,30.0,30.22,NNW,344,1.0,8.0,58,0.00,,,0.00,0,weatherlink.com 1.10,2013-03-30 03:47:00,